createdAt,value
2018-05-14T00:02:16.342Z,6.20
2018-05-14T00:04:47.377Z,6.60
2018-05-14T00:07:18.357Z,5.60
2018-05-14T00:09:49.375Z,5.60
2018-05-14T00:12:20.367Z,5.47
2018-05-14T00:14:51.363Z,5.53
2018-05-14T00:17:22.387Z,5.17
2018-05-14T00:19:53.366Z,5.40
2018-05-14T00:22:24.357Z,6.17
2018-05-14T00:24:55.323Z,5.13
2018-05-14T00:27:26.376Z,4.90
2018-05-14T00:29:57.396Z,5.93
2018-05-14T00:32:28.391Z,5.60
2018-05-14T00:34:59.369Z,6.80
2018-05-14T00:37:30.412Z,6.30
2018-05-14T00:40:01.412Z,6.63
2018-05-14T00:42:32.436Z,6.80
2018-05-14T00:45:03.436Z,7.07
2018-05-14T00:47:34.472Z,7.63
2018-05-14T00:50:05.480Z,7.63
2018-05-14T00:52:36.515Z,7.87
2018-05-14T00:55:13.771Z,8.73
2018-05-14T00:57:44.813Z,9.27
2018-05-14T01:00:15.799Z,9.20
2018-05-14T01:02:46.844Z,9.33
2018-05-14T01:05:17.811Z,9.80
2018-05-14T01:07:48.823Z,9.63
2018-05-14T01:10:19.829Z,9.57
2018-05-14T01:12:50.854Z,8.80
2018-05-14T01:15:21.822Z,10.03
2018-05-14T01:17:52.814Z,9.77
2018-05-14T01:20:23.787Z,9.43
2018-05-14T01:22:54.796Z,9.50
2018-05-14T01:25:25.791Z,9.20
2018-05-14T01:27:56.762Z,9.33
2018-05-14T01:30:27.808Z,9.87
2018-05-14T01:32:58.796Z,9.87
2018-05-14T01:35:29.840Z,10.13
2018-05-14T01:38:00.831Z,9.87
2018-05-14T01:40:31.848Z,10.97
2018-05-14T01:43:02.799Z,10.50
2018-05-14T01:45:33.810Z,9.73
2018-05-14T01:48:04.790Z,10.53
2018-05-14T01:50:35.775Z,9.80
2018-05-14T01:53:06.804Z,9.97
2018-05-14T01:55:37.814Z,9.63
2018-05-14T01:58:08.834Z,9.80
2018-05-14T02:00:39.808Z,9.60
2018-05-14T02:03:10.856Z,9.27
2018-05-14T02:05:41.930Z,9.70
2018-05-14T02:08:12.920Z,10.10
2018-05-14T02:10:43.944Z,10.60
2018-05-14T02:13:14.988Z,9.03
2018-05-14T02:15:45.982Z,9.43
2018-05-14T02:18:17.092Z,9.70
2018-05-14T02:20:48.053Z,9.10
2018-05-14T02:23:19.105Z,9.43
2018-05-14T02:25:50.078Z,9.70
2018-05-14T02:28:21.094Z,9.43
2018-05-14T02:30:52.094Z,10.53
2018-05-14T02:33:23.144Z,11.10
2018-05-14T02:35:54.132Z,10.87
2018-05-14T02:38:25.149Z,10.87
2018-05-14T02:40:56.138Z,9.70
2018-05-14T02:43:27.144Z,10.87
2018-05-14T02:45:58.115Z,10.00
2018-05-14T02:48:29.116Z,10.77
2018-05-14T02:51:00.086Z,10.57
2018-05-14T02:53:31.094Z,11.30
2018-05-14T02:56:02.050Z,11.53
2018-05-14T02:58:33.056Z,11.20
2018-05-14T03:01:04.149Z,11.77
2018-05-14T03:03:35.110Z,12.47
2018-05-14T03:06:06.133Z,10.87
2018-05-14T03:08:37.141Z,11.77
2018-05-14T03:11:08.090Z,12.03
2018-05-14T03:13:39.236Z,12.77
2018-05-14T03:16:10.225Z,12.23
2018-05-14T03:18:41.251Z,13.23
2018-05-14T03:21:12.254Z,12.10
2018-05-14T03:23:43.258Z,12.93
2018-05-14T03:26:14.230Z,13.00
2018-05-14T03:28:45.256Z,13.40
2018-05-14T03:31:16.232Z,14.50
2018-05-14T03:33:47.254Z,14.03
2018-05-14T03:36:18.246Z,13.23
2018-05-14T03:38:49.295Z,13.73
2018-05-14T03:41:20.277Z,14.27
2018-05-14T03:43:51.282Z,15.07
2018-05-14T03:46:22.291Z,14.53
2018-05-14T03:48:53.295Z,13.77
2018-05-14T03:51:24.336Z,14.13
2018-05-14T03:53:55.321Z,15.67
2018-05-14T03:56:26.376Z,15.27
2018-05-14T03:59:09.456Z,15.43
2018-05-14T04:01:52.666Z,15.27
2018-05-14T04:04:36.118Z,14.93
2018-05-14T04:07:07.109Z,15.20
2018-05-14T04:09:38.092Z,15.03
2018-05-14T04:12:09.096Z,15.93
2018-05-14T04:14:40.103Z,14.53
2018-05-14T04:17:11.938Z,12.93
2018-05-14T04:19:42.951Z,12.27
2018-05-14T04:22:13.916Z,13.60
2018-05-14T04:24:44.968Z,13.10
2018-05-14T04:27:15.962Z,13.00
2018-05-14T04:29:47.281Z,13.20
2018-05-14T04:32:18.273Z,12.40
2018-05-14T04:34:49.251Z,12.17
2018-05-14T04:37:20.214Z,14.50
2018-05-14T04:39:51.202Z,12.83
2018-05-14T04:42:22.172Z,13.17
2018-05-14T04:44:53.201Z,13.97
2018-05-14T04:47:24.203Z,14.37
2018-05-14T04:49:55.252Z,12.87
2018-05-14T04:52:26.273Z,13.00
2018-05-14T04:54:57.295Z,12.63
2018-05-14T04:57:28.293Z,12.57
2018-05-14T04:59:59.254Z,12.37
2018-05-14T05:02:30.262Z,12.43
2018-05-14T05:05:01.265Z,12.30
2018-05-14T05:07:32.250Z,12.10
2018-05-14T05:10:03.304Z,11.20
2018-05-14T05:12:34.317Z,11.57
2018-05-14T05:15:05.360Z,12.47
2018-05-14T05:17:36.356Z,11.40
2018-05-14T05:20:07.448Z,13.33
2018-05-14T05:22:39.283Z,13.07
2018-05-14T05:25:10.289Z,13.10
2018-05-14T05:27:41.344Z,12.10
2018-05-14T05:30:12.380Z,13.17
2018-05-14T05:32:43.393Z,12.83
2018-05-14T05:35:14.429Z,12.47
2018-05-14T05:37:45.547Z,12.50
2018-05-14T05:40:16.517Z,11.90
2018-05-14T05:42:47.543Z,14.00
2018-05-14T05:45:18.617Z,14.00
2018-05-14T05:47:49.586Z,14.30
2018-05-14T05:50:20.608Z,13.67
2018-05-14T05:52:51.598Z,13.80
2018-05-14T05:55:29.548Z,14.47
2018-05-14T05:58:00.536Z,12.63
2018-05-14T06:00:31.543Z,14.00
2018-05-14T06:03:02.579Z,14.70
2018-05-14T06:05:33.608Z,16.57
2018-05-14T06:10:42.687Z,10.67
2018-05-14T06:13:13.641Z,10.00
2018-05-14T06:15:44.642Z,10.77
2018-05-14T06:18:15.628Z,11.00
2018-05-14T06:20:46.650Z,9.90
2018-05-14T06:23:17.607Z,10.37
2018-05-14T06:25:48.651Z,11.60
2018-05-14T06:28:19.634Z,10.97
2018-05-14T06:30:50.620Z,11.00
2018-05-14T06:33:21.645Z,10.57
2018-05-14T06:35:52.630Z,10.10
2018-05-14T06:38:23.612Z,10.13
2018-05-14T06:40:54.655Z,10.63
2018-05-14T06:43:25.644Z,9.97
2018-05-14T06:45:56.698Z,9.67
2018-05-14T06:48:27.705Z,8.60
2018-05-14T06:50:58.747Z,7.97
2018-05-14T06:53:29.769Z,8.40
2018-05-14T06:56:00.764Z,9.30
2018-05-14T06:58:31.791Z,8.60
2018-05-14T07:01:02.816Z,9.38
2018-05-14T07:03:33.828Z,9.23
2018-05-14T07:06:04.835Z,9.45
2018-05-14T07:08:35.793Z,9.25
2018-05-14T07:11:06.810Z,8.98
2018-05-14T07:13:37.806Z,9.33
2018-05-14T07:16:08.837Z,8.90
2018-05-14T07:18:39.913Z,10.13
2018-05-14T07:21:10.915Z,10.53
2018-05-14T07:23:41.994Z,10.17
2018-05-14T07:26:12.992Z,10.73
2018-05-14T07:28:43.996Z,12.33
2018-05-14T07:31:14.961Z,12.30
2018-05-14T07:33:45.946Z,13.93
2018-05-14T07:36:16.954Z,16.97
2018-05-14T07:38:48.016Z,17.80
2018-05-14T07:41:19.001Z,19.27
2018-05-14T07:43:50.100Z,18.60
2018-05-14T07:46:21.031Z,19.17
2018-05-14T07:48:52.066Z,16.93
2018-05-14T07:51:23.120Z,15.90
2018-05-14T07:53:54.130Z,15.80
2018-05-14T07:56:25.133Z,15.37
2018-05-14T07:58:56.125Z,16.20
2018-05-14T08:01:27.165Z,15.70
2018-05-14T08:03:58.201Z,17.27
2018-05-14T08:06:29.213Z,17.37
2018-05-14T08:09:00.186Z,16.03
2018-05-14T08:11:31.171Z,18.20
2018-05-14T08:14:02.226Z,18.07
2018-05-14T08:16:33.259Z,17.73
2018-05-14T08:19:04.234Z,17.80
2018-05-14T08:21:35.265Z,17.77
2018-05-14T08:24:06.254Z,16.63
2018-05-14T08:26:37.272Z,18.07
2018-05-14T08:29:08.366Z,17.83
2018-05-14T08:31:39.280Z,18.93
2018-05-14T08:34:10.269Z,20.47
2018-05-14T08:36:41.249Z,18.83
2018-05-14T08:39:12.224Z,18.53
2018-05-14T08:41:43.214Z,19.47
2018-05-14T08:44:14.201Z,19.50
2018-05-14T08:46:45.182Z,20.10
2018-05-14T08:49:16.196Z,20.97
2018-05-14T08:51:47.187Z,21.47
2018-05-14T08:54:18.312Z,22.30
2018-05-14T08:56:49.203Z,21.43
2018-05-14T08:59:20.162Z,22.07
2018-05-14T09:01:51.153Z,22.83
2018-05-14T09:04:22.162Z,21.60
2018-05-14T09:06:53.163Z,22.07
2018-05-14T09:09:24.239Z,21.20
2018-05-14T09:11:55.258Z,20.30
2018-05-14T09:14:26.268Z,20.40
2018-05-14T09:16:57.278Z,19.93
2018-05-14T09:19:28.393Z,18.87
2018-05-14T09:21:59.263Z,19.67
2018-05-14T09:24:30.307Z,17.50
2018-05-14T09:27:01.260Z,18.70
2018-05-14T09:29:32.254Z,18.43
2018-05-14T09:32:03.304Z,18.23
2018-05-14T09:34:34.279Z,19.70
2018-05-14T09:37:05.269Z,18.53
2018-05-14T09:39:36.263Z,16.93
2018-05-14T09:42:07.277Z,19.77
2018-05-14T09:44:38.409Z,21.57
2018-05-14T09:47:09.298Z,23.87
2018-05-14T09:49:40.292Z,19.70
2018-05-14T09:52:11.281Z,18.33
2018-05-14T09:54:42.268Z,19.07
2018-05-14T09:57:13.316Z,17.27
2018-05-14T09:59:44.282Z,17.57
2018-05-14T10:02:15.266Z,17.17
2018-05-14T10:04:46.250Z,18.57
2018-05-14T10:07:17.255Z,18.33
2018-05-14T10:09:48.308Z,18.70
2018-05-14T10:12:19.330Z,18.53
2018-05-14T10:14:50.285Z,19.43
2018-05-14T10:17:21.302Z,17.83
2018-05-14T10:19:52.304Z,17.93
2018-05-14T10:22:23.360Z,18.53
2018-05-14T10:24:54.341Z,18.43
2018-05-14T10:27:25.356Z,18.93
2018-05-14T10:29:56.308Z,20.10
2018-05-14T10:32:27.360Z,18.67
2018-05-14T10:34:58.381Z,19.90
2018-05-14T10:37:29.327Z,20.53
2018-05-14T10:40:00.326Z,21.03
2018-05-14T10:42:31.279Z,22.70
2018-05-14T10:45:02.270Z,22.17
2018-05-14T10:47:33.312Z,22.90
2018-05-14T10:50:04.391Z,22.53
2018-05-14T10:52:42.498Z,22.03
2018-05-14T10:55:13.506Z,23.07
2018-05-14T10:57:44.567Z,26.67
2018-05-14T11:00:15.588Z,29.20
2018-05-14T11:02:46.600Z,32.87
2018-05-14T11:05:17.588Z,32.43
2018-05-14T11:07:48.586Z,29.87
2018-05-14T11:10:19.578Z,29.27
2018-05-14T11:12:50.588Z,30.17
2018-05-14T11:15:21.567Z,29.77
2018-05-14T11:17:52.558Z,27.70
2018-05-14T11:20:23.594Z,26.23
2018-05-14T11:22:54.665Z,26.10
2018-05-14T11:25:25.690Z,24.73
2018-05-14T11:27:56.755Z,24.73
2018-05-14T11:30:27.702Z,26.13
2018-05-14T11:32:58.744Z,25.43
2018-05-14T11:35:29.777Z,23.90
2018-05-14T11:38:00.682Z,23.93
2018-05-14T11:40:31.679Z,23.40
2018-05-14T11:43:02.630Z,22.83
2018-05-14T11:45:33.655Z,24.03
2018-05-14T11:48:04.645Z,22.87
2018-05-14T11:50:35.695Z,22.33
2018-05-14T11:53:06.705Z,22.03
2018-05-14T11:55:37.724Z,21.00
2018-05-14T11:58:08.702Z,22.80
2018-05-14T12:00:39.702Z,21.30
2018-05-14T12:03:10.813Z,21.83
2018-05-14T12:05:41.813Z,22.60
2018-05-14T12:08:12.830Z,22.03
2018-05-14T12:10:43.786Z,20.40
2018-05-14T12:13:14.796Z,20.20
2018-05-14T12:15:45.799Z,22.00
2018-05-14T12:18:16.814Z,22.60
2018-05-14T12:20:47.783Z,20.43
2018-05-14T12:23:18.776Z,20.17
2018-05-14T12:25:49.798Z,20.03
2018-05-14T12:28:20.813Z,21.07
2018-05-14T12:30:51.826Z,24.33
2018-05-14T12:33:22.828Z,22.57
2018-05-14T12:35:53.824Z,22.60
2018-05-14T12:38:24.796Z,22.23
2018-05-14T12:40:56.215Z,21.17
2018-05-14T12:43:27.213Z,23.00
2018-05-14T12:45:58.256Z,21.37
2018-05-14T12:48:29.271Z,22.77
2018-05-14T12:51:00.300Z,21.13
2018-05-14T12:53:31.309Z,19.53
2018-05-14T12:56:02.332Z,19.90
2018-05-14T12:58:33.324Z,20.53
2018-05-14T13:01:04.327Z,21.23
2018-05-14T13:03:35.403Z,19.43
2018-05-14T13:06:06.364Z,20.77
2018-05-14T13:08:37.397Z,19.53
2018-05-14T13:11:08.418Z,19.47
2018-05-14T13:13:39.410Z,19.07
2018-05-14T13:16:10.447Z,16.90
2018-05-14T13:18:41.418Z,17.20
2018-05-14T13:21:12.388Z,17.63
2018-05-14T13:23:43.386Z,18.43
2018-05-14T13:26:14.404Z,19.23
2018-05-14T13:28:48.383Z,16.73
2018-05-14T13:31:19.454Z,16.73
2018-05-14T13:33:50.444Z,15.97
2018-05-14T13:36:21.534Z,15.80
2018-05-14T13:38:52.506Z,14.80
2018-05-14T13:41:23.482Z,14.27
2018-05-14T13:43:54.451Z,14.00
2018-05-14T13:46:25.448Z,15.60
2018-05-14T13:48:56.474Z,13.77
2018-05-14T13:51:27.475Z,13.07
2018-05-14T13:53:58.494Z,11.73
2018-05-14T13:56:29.494Z,10.70
2018-05-14T13:59:00.516Z,11.07
2018-05-14T14:01:31.529Z,9.73
2018-05-14T14:04:02.536Z,10.53
2018-05-14T14:06:33.514Z,10.30
2018-05-14T14:09:04.530Z,9.93
2018-05-14T14:11:35.504Z,10.03
2018-05-14T14:14:06.577Z,13.30
2018-05-14T14:16:37.621Z,12.20
2018-05-14T14:19:08.579Z,12.20
2018-05-14T14:21:39.590Z,12.40
2018-05-14T14:24:10.615Z,9.03
2018-05-14T14:26:41.611Z,8.10
2018-05-14T14:29:12.633Z,9.57
2018-05-14T14:31:43.678Z,8.00
2018-05-14T14:34:14.753Z,5.57
2018-05-14T14:36:45.731Z,5.73
2018-05-14T14:39:16.753Z,5.20
2018-05-14T14:41:47.831Z,6.00
2018-05-14T14:44:18.796Z,5.67
2018-05-14T14:46:49.782Z,5.80
2018-05-14T14:49:20.816Z,6.43
2018-05-14T14:51:51.844Z,6.30
2018-05-14T14:54:22.872Z,6.40
2018-05-14T14:56:53.873Z,6.60
2018-05-14T14:59:24.890Z,6.37
2018-05-14T15:01:55.882Z,5.93
2018-05-14T15:04:26.909Z,5.63
2018-05-14T15:06:57.907Z,5.97
2018-05-14T15:09:28.942Z,5.30
2018-05-14T15:11:59.907Z,4.30
2018-05-14T15:14:30.929Z,3.90
2018-05-14T15:17:01.960Z,3.33
2018-05-14T15:19:32.957Z,3.43
2018-05-14T15:22:03.970Z,3.90
2018-05-14T15:24:34.949Z,3.70
2018-05-14T15:27:05.993Z,4.00
2018-05-14T15:29:36.976Z,4.03
2018-05-14T15:32:08.012Z,4.40
2018-05-14T15:34:39.025Z,3.40
2018-05-14T15:37:10.089Z,3.70
2018-05-14T15:39:41.069Z,3.93
2018-05-14T15:42:12.041Z,3.57
2018-05-14T15:44:43.012Z,3.53
2018-05-14T15:47:14.030Z,3.93
2018-05-14T15:49:45.319Z,3.90
2018-05-14T15:52:16.346Z,3.90
2018-05-14T15:54:47.380Z,3.67
2018-05-14T15:57:18.358Z,4.30
2018-05-14T15:59:49.363Z,3.77
2018-05-14T16:02:20.363Z,4.13
2018-05-14T16:07:24.487Z,4.13
2018-05-14T16:09:55.461Z,3.30
2018-05-14T16:12:26.518Z,3.70
2018-05-14T16:14:57.487Z,3.90
2018-05-14T16:17:28.578Z,4.10
2018-05-14T16:19:59.590Z,3.93
2018-05-14T16:22:30.588Z,4.30
2018-05-14T16:25:01.588Z,3.67
2018-05-14T16:27:32.588Z,3.93
2018-05-14T16:30:03.651Z,3.87
2018-05-14T16:32:34.665Z,3.93
2018-05-14T16:35:05.682Z,4.03
2018-05-14T16:37:36.716Z,4.97
2018-05-14T16:40:07.781Z,4.57
2018-05-14T16:42:38.741Z,4.33
2018-05-14T16:45:09.827Z,4.20
2018-05-14T16:47:40.869Z,4.20
2018-05-14T16:50:11.969Z,4.10
2018-05-14T16:52:42.959Z,4.37
2018-05-14T16:55:14.014Z,4.40
2018-05-14T16:57:45.086Z,4.00
2018-05-14T17:00:16.050Z,3.60
2018-05-14T17:02:47.034Z,3.57
2018-05-14T17:05:18.025Z,3.70
2018-05-14T17:07:49.052Z,3.80
2018-05-14T17:10:20.134Z,3.90
2018-05-14T17:12:51.118Z,4.07
2018-05-14T17:15:22.072Z,4.30
2018-05-14T17:17:53.070Z,4.03
2018-05-14T17:20:24.074Z,4.00
2018-05-14T17:22:55.066Z,4.30
2018-05-14T17:25:26.079Z,3.70
2018-05-14T17:27:57.140Z,3.07
2018-05-14T17:30:28.128Z,3.83
2018-05-14T17:32:59.138Z,3.43
2018-05-14T17:35:30.163Z,3.27
2018-05-14T17:38:01.197Z,3.63
2018-05-14T17:40:32.224Z,3.80
2018-05-14T17:43:03.276Z,3.80
2018-05-14T17:45:34.251Z,3.60
2018-05-14T17:48:05.264Z,3.63
2018-05-14T17:50:36.249Z,3.83
2018-05-14T17:53:07.276Z,3.57
2018-05-14T17:55:38.237Z,3.80
2018-05-14T17:58:09.235Z,4.10
2018-05-14T18:00:40.222Z,3.80
2018-05-14T18:03:11.239Z,3.53
2018-05-14T18:05:42.223Z,3.80
2018-05-14T18:08:13.303Z,4.00
2018-05-14T18:10:44.332Z,3.60
2018-05-14T18:13:15.408Z,3.97
2018-05-14T18:15:46.402Z,4.53
2018-05-14T18:18:17.425Z,4.93
2018-05-14T18:20:48.452Z,4.30
2018-05-14T18:23:23.244Z,4.83
2018-05-14T18:25:54.273Z,4.70
2018-05-14T18:28:31.426Z,4.00
2018-05-14T18:31:02.410Z,4.00
2018-05-14T18:33:33.393Z,3.83
2018-05-14T18:36:04.420Z,3.60
2018-05-14T18:38:35.424Z,4.27
2018-05-14T18:41:06.412Z,3.93
2018-05-14T18:43:37.463Z,3.83
2018-05-14T18:46:08.455Z,3.60
2018-05-14T18:48:39.492Z,3.80
2018-05-14T18:51:10.490Z,4.10
2018-05-14T18:53:41.515Z,3.90
2018-05-14T18:56:12.515Z,4.10
2018-05-14T18:58:43.525Z,4.37
2018-05-14T19:01:14.540Z,4.70
2018-05-14T19:03:45.573Z,4.47
2018-05-14T19:06:16.586Z,4.70
2018-05-14T19:08:47.655Z,4.07
2018-05-14T19:11:24.681Z,4.47
2018-05-14T19:13:55.698Z,4.67
2018-05-14T19:16:32.775Z,4.50
2018-05-14T19:19:04.050Z,4.07
2018-05-14T19:21:35.062Z,4.30
2018-05-14T19:24:06.090Z,3.83
2018-05-14T19:26:37.131Z,4.00
2018-05-14T19:29:14.063Z,3.80
2018-05-14T19:31:45.112Z,4.10
2018-05-14T19:34:22.236Z,3.80
2018-05-14T19:36:53.233Z,3.87
2018-05-14T19:39:30.451Z,3.57
2018-05-14T19:42:01.467Z,4.10
2018-05-14T19:44:32.484Z,3.47
2018-05-14T19:47:03.634Z,4.17
2018-05-14T19:49:34.621Z,3.77
2018-05-14T19:52:05.603Z,4.20
2018-05-14T19:54:36.580Z,3.70
2018-05-14T19:57:07.621Z,3.33
2018-05-14T19:59:38.563Z,3.87
2018-05-14T20:02:09.615Z,4.17
2018-05-14T20:04:40.593Z,4.50
2018-05-14T20:07:11.626Z,4.60
2018-05-14T20:09:42.628Z,4.33
2018-05-14T20:12:13.662Z,4.87
2018-05-14T20:14:44.685Z,4.33
2018-05-14T20:17:15.663Z,4.10
2018-05-14T20:19:46.682Z,4.60
2018-05-14T20:22:17.686Z,4.23
2018-05-14T20:24:48.745Z,4.40
2018-05-14T20:27:19.782Z,4.50
2018-05-14T20:29:50.998Z,4.67
2018-05-14T20:32:21.980Z,4.77
2018-05-14T20:34:53.025Z,4.53
2018-05-14T20:37:24.087Z,4.50
2018-05-14T20:39:55.196Z,4.20
2018-05-14T20:42:26.238Z,4.40
2018-05-14T20:44:57.221Z,4.63
2018-05-14T20:47:28.250Z,4.00
2018-05-14T20:49:59.218Z,4.37
2018-05-14T20:52:30.275Z,4.13
2018-05-14T20:55:01.288Z,4.60
2018-05-14T20:57:32.352Z,4.63
2018-05-14T21:00:03.392Z,4.67
2018-05-14T21:02:34.438Z,4.40
2018-05-14T21:05:05.475Z,4.80
2018-05-14T21:07:36.487Z,4.30
2018-05-14T21:10:07.524Z,4.83
2018-05-14T21:12:38.487Z,5.30
2018-05-14T21:15:09.540Z,5.33
2018-05-14T21:17:40.556Z,4.57
2018-05-14T21:20:18.848Z,6.23
2018-05-14T21:22:49.839Z,5.43
2018-05-14T21:25:20.850Z,5.40
2018-05-14T21:27:51.839Z,6.23
2018-05-14T21:30:22.830Z,5.30
2018-05-14T21:32:53.784Z,5.13
2018-05-14T21:35:24.843Z,4.97
2018-05-14T21:37:55.825Z,4.67
2018-05-14T21:40:26.866Z,4.60
2018-05-14T21:42:57.834Z,5.30
2018-05-14T21:45:28.860Z,5.00
2018-05-14T21:47:59.848Z,4.70
2018-05-14T21:50:30.870Z,5.13
2018-05-14T21:53:01.959Z,4.87
2018-05-14T21:55:32.927Z,4.77
2018-05-14T21:58:03.951Z,4.77
2018-05-14T22:00:34.962Z,5.07
2018-05-14T22:03:05.989Z,5.10
2018-05-14T22:05:49.067Z,4.87
2018-05-14T22:08:20.127Z,5.27
2018-05-14T22:10:51.139Z,4.50
2018-05-14T22:13:22.170Z,4.77
2018-05-14T22:15:53.137Z,4.70
2018-05-14T22:18:24.244Z,4.47
2018-05-14T22:20:55.152Z,5.27
2018-05-14T22:23:26.178Z,4.80
2018-05-14T22:25:57.178Z,5.20
2018-05-14T22:28:28.189Z,4.70
2018-05-14T22:30:59.178Z,4.87
2018-05-14T22:33:30.183Z,4.87
2018-05-14T22:36:01.218Z,4.73
2018-05-14T22:38:32.276Z,4.70
2018-05-14T22:41:03.243Z,4.40
2018-05-14T22:43:34.225Z,4.77
2018-05-14T22:46:05.253Z,4.83
2018-05-14T22:48:36.266Z,4.60
2018-05-14T22:51:07.248Z,4.33
2018-05-14T22:53:38.304Z,4.57
2018-05-14T22:56:09.306Z,4.80
2018-05-14T22:58:40.303Z,4.83
2018-05-14T23:01:11.307Z,4.53
2018-05-14T23:03:42.288Z,4.93
2018-05-14T23:06:13.278Z,5.13
2018-05-14T23:08:44.304Z,4.97
2018-05-14T23:11:15.300Z,5.27
2018-05-14T23:13:46.323Z,5.23
2018-05-14T23:16:17.308Z,5.57
2018-05-14T23:18:48.309Z,4.40
2018-05-14T23:21:19.293Z,5.07
2018-05-14T23:23:50.313Z,4.90
2018-05-14T23:26:21.293Z,4.50
2018-05-14T23:28:52.284Z,4.83
2018-05-14T23:31:23.252Z,4.83
2018-05-14T23:33:54.280Z,4.73
2018-05-14T23:36:25.246Z,4.93
2018-05-14T23:38:56.257Z,5.30
2018-05-14T23:41:27.237Z,4.53
2018-05-14T23:43:58.204Z,4.67
2018-05-14T23:46:29.244Z,3.80
2018-05-14T23:49:00.213Z,4.47
2018-05-14T23:51:31.220Z,4.93
2018-05-14T23:54:02.283Z,5.17
2018-05-14T23:56:33.338Z,4.77
2018-05-14T23:59:04.346Z,4.73
